createdAt,value
2023-01-30T00:00:33.172Z,97165.81
2023-01-30T00:02:34.671Z,97175.06
2023-01-30T00:04:36.098Z,97175.66
2023-01-30T00:06:38.325Z,97156.91
2023-01-30T00:08:39.970Z,97148.09
2023-01-30T00:10:41.891Z,97149.53
2023-01-30T00:12:43.669Z,97126.06
2023-01-30T00:14:45.163Z,97128.72
2023-01-30T00:16:46.801Z,97138.28
2023-01-30T00:18:48.453Z,97119.38
2023-01-30T00:20:56.022Z,97139.41
2023-01-30T00:23:01.148Z,97138.56
2023-01-30T00:25:21.424Z,97130.66
2023-01-30T00:27:23.284Z,97126.28
2023-01-30T00:29:24.879Z,97124.84
2023-01-30T00:31:26.519Z,97133.44
2023-01-30T00:33:28.836Z,97134.41
2023-01-30T00:35:30.371Z,97133.44
2023-01-30T00:37:32.664Z,97103.22
2023-01-30T00:39:34.480Z,97110.50
2023-01-30T00:41:55.259Z,97100.25
2023-01-30T00:44:15.228Z,97107.66
2023-01-30T00:46:52.684Z,97093.22
2023-01-30T00:48:54.983Z,97057.22
2023-01-30T00:50:56.711Z,97054.38
2023-01-30T00:52:58.448Z,97044.97
2023-01-30T00:54:59.997Z,97052.41
2023-01-30T00:57:01.717Z,97069.66
2023-01-30T00:59:03.412Z,97071.47
2023-01-30T01:01:05.135Z,97063.38
2023-01-30T01:03:08.002Z,97050.19
2023-01-30T01:05:10.062Z,97058.88
2023-01-30T01:07:14.889Z,97061.59
2023-01-30T01:09:16.576Z,97044.66
2023-01-30T01:11:24.162Z,97047.53
2023-01-30T01:13:25.867Z,97040.38
2023-01-30T01:15:27.557Z,97039.25
2023-01-30T01:17:29.694Z,97042.78
2023-01-30T01:19:31.329Z,97031.78
2023-01-30T01:21:34.269Z,97030.44
2023-01-30T01:23:36.217Z,97024.47
2023-01-30T01:25:37.925Z,97031.94
2023-01-30T01:27:41.409Z,97029.78
2023-01-30T01:29:43.391Z,97028.69
2023-01-30T01:31:45.279Z,97034.31
2023-01-30T01:33:46.948Z,97044.81
2023-01-30T01:35:48.566Z,97043.38
2023-01-30T01:37:54.878Z,97046.16
2023-01-30T01:40:15.307Z,97035.31
2023-01-30T01:42:17.841Z,97015.00
2023-01-30T01:44:19.647Z,97009.56
2023-01-30T01:46:27.880Z,97003.72
2023-01-30T01:48:36.661Z,97002.28
2023-01-30T01:51:04.815Z,97004.38
2023-01-30T01:53:32.190Z,97038.22
2023-01-30T01:55:57.020Z,97046.03
2023-01-30T01:58:25.906Z,97041.97
2023-01-30T02:00:49.175Z,97032.81
2023-01-30T02:03:15.494Z,97030.81
2023-01-30T02:05:44.099Z,97028.91
2023-01-30T02:08:13.376Z,97002.94
2023-01-30T02:11:13.802Z,97005.94
2023-01-30T02:13:35.537Z,96993.44
2023-01-30T02:15:59.845Z,96982.63
2023-01-30T02:22:52.299Z,96983.06
2023-01-30T02:26:09.420Z,96975.22
2023-01-30T02:29:19.941Z,96970.91
2023-01-30T02:32:03.315Z,96961.72
2023-01-30T02:34:57.410Z,96964.38
2023-01-30T02:38:04.048Z,96961.53
2023-01-30T02:40:49.082Z,96958.09
2023-01-30T02:43:35.665Z,96969.25
2023-01-30T02:46:02.587Z,96972.78
2023-01-30T02:48:30.489Z,96965.28
2023-01-30T02:51:15.281Z,96958.53
2023-01-30T02:53:38.023Z,96964.41
2023-01-30T02:56:00.610Z,96965.28
2023-01-30T02:58:24.155Z,96956.53
2023-01-30T03:01:11.194Z,96955.66
2023-01-30T03:03:39.589Z,96959.09
2023-01-30T03:06:15.821Z,96959.72
2023-01-30T03:08:55.507Z,96938.84
2023-01-30T03:11:17.923Z,96951.00
2023-01-30T03:13:52.740Z,96950.91
2023-01-30T03:16:21.087Z,96935.53
2023-01-30T03:18:44.070Z,96936.53
2023-01-30T03:21:06.137Z,96921.25
2023-01-30T03:23:27.657Z,96926.59
2023-01-30T03:25:49.238Z,96940.94
2023-01-30T03:28:13.372Z,96946.66
2023-01-30T03:30:35.328Z,96941.28
2023-01-30T03:33:03.295Z,96940.28
2023-01-30T03:35:25.094Z,96937.75
2023-01-30T03:37:47.622Z,96948.34
2023-01-30T03:40:10.182Z,96929.44
2023-01-30T03:42:32.651Z,96930.44
2023-01-30T03:44:54.277Z,96947.59
2023-01-30T03:47:15.815Z,96942.16
2023-01-30T03:49:37.421Z,96924.81
2023-01-30T03:51:59.227Z,96923.28
2023-01-30T03:54:21.176Z,96930.25
2023-01-30T03:56:42.967Z,96926.13
2023-01-30T03:59:04.571Z,96913.09
2023-01-30T04:01:34.581Z,96902.94
2023-01-30T04:03:57.039Z,96896.50
2023-01-30T04:06:22.172Z,96895.59
2023-01-30T04:08:44.106Z,96896.91
2023-01-30T04:11:15.324Z,96885.56
2023-01-30T04:13:37.405Z,96892.06
2023-01-30T04:16:17.692Z,96874.94
2023-01-30T04:19:02.069Z,96877.34
2023-01-30T04:21:26.928Z,96874.38
2023-01-30T04:23:48.539Z,96869.41
2023-01-30T04:26:10.627Z,96866.50
2023-01-30T04:28:35.065Z,96877.66
2023-01-30T04:30:57.213Z,96869.31
2023-01-30T04:33:51.245Z,96875.03
2023-01-30T04:36:13.529Z,96865.84
2023-01-30T04:38:36.828Z,96864.50
2023-01-30T04:41:00.103Z,96863.44
2023-01-30T04:43:25.772Z,96872.06
2023-01-30T04:45:48.602Z,96862.63
2023-01-30T04:48:10.455Z,96854.16
2023-01-30T04:50:33.120Z,96843.00
2023-01-30T04:52:55.038Z,96838.03
2023-01-30T04:55:16.887Z,96834.13
2023-01-30T04:57:38.531Z,96827.63
2023-01-30T05:00:00.166Z,96851.06
2023-01-30T05:02:23.148Z,96826.63
2023-01-30T05:04:45.492Z,96828.53
2023-01-30T05:07:07.144Z,96832.53
2023-01-30T05:09:28.682Z,96828.28
2023-01-30T05:11:50.303Z,96815.59
2023-01-30T05:14:11.852Z,96813.06
2023-01-30T05:16:33.384Z,96814.06
2023-01-30T05:18:55.279Z,96812.44
2023-01-30T05:21:22.869Z,96801.81
2023-01-30T05:23:44.958Z,96804.59
2023-01-30T05:26:07.063Z,96801.91
2023-01-30T05:28:29.383Z,96814.66
2023-01-30T05:30:50.979Z,96808.72
2023-01-30T05:33:12.570Z,96800.41
2023-01-30T05:35:34.080Z,96816.44
2023-01-30T05:37:55.584Z,96814.88
2023-01-30T05:39:57.167Z,96810.25
2023-01-30T05:41:58.973Z,96788.00
2023-01-30T05:44:00.523Z,96786.56
2023-01-30T05:46:04.403Z,96788.13
2023-01-30T05:48:06.515Z,96790.47
2023-01-30T05:50:09.537Z,96788.72
2023-01-30T05:52:11.192Z,96789.31
2023-01-30T05:54:13.042Z,96785.66
2023-01-30T05:56:15.659Z,96794.50
2023-01-30T05:58:17.202Z,96789.47
2023-01-30T06:00:19.242Z,96783.34
2023-01-30T06:02:20.818Z,96780.09
2023-01-30T06:04:22.524Z,96778.97
2023-01-30T06:06:25.108Z,96773.28
2023-01-30T06:08:27.054Z,96770.97
2023-01-30T06:10:28.663Z,96766.28
2023-01-30T06:12:30.367Z,96769.03
2023-01-30T06:14:31.981Z,96761.94
2023-01-30T06:16:33.732Z,96774.97
2023-01-30T06:18:36.144Z,96768.81
2023-01-30T06:20:37.869Z,96770.88
2023-01-30T06:22:39.493Z,96768.16
2023-01-30T06:24:41.164Z,96779.16
2023-01-30T06:26:42.717Z,96756.38
2023-01-30T06:28:44.331Z,96736.28
2023-01-30T06:30:46.020Z,96750.03
2023-01-30T06:32:50.918Z,96758.19
2023-01-30T06:34:52.423Z,96780.34
2023-01-30T06:36:53.902Z,96772.41
2023-01-30T06:38:55.574Z,96762.38
2023-01-30T06:40:57.155Z,96758.09
2023-01-30T06:42:58.689Z,96767.53
2023-01-30T06:45:00.268Z,96782.53
2023-01-30T06:47:01.995Z,96785.09
2023-01-30T06:49:03.756Z,96782.34
2023-01-30T06:51:05.456Z,96781.66
2023-01-30T06:53:08.505Z,96782.88
2023-01-30T06:55:14.098Z,96790.16
2023-01-30T06:57:16.518Z,96800.31
2023-01-30T06:59:18.148Z,96779.19
2023-01-30T07:01:21.094Z,96777.22
2023-01-30T07:03:22.787Z,96784.25
2023-01-30T07:05:24.506Z,96800.28
2023-01-30T07:07:26.684Z,96803.69
2023-01-30T07:09:28.363Z,96796.72
2023-01-30T07:11:31.170Z,96785.53
2023-01-30T07:13:32.801Z,96798.19
2023-01-30T07:15:34.642Z,96791.63
2023-01-30T07:17:36.179Z,96794.88
2023-01-30T07:19:38.887Z,96804.25
2023-01-30T07:21:40.777Z,96819.16
2023-01-30T07:23:43.670Z,96834.56
2023-01-30T07:25:45.197Z,96815.91
2023-01-30T07:28:00.686Z,96812.47
2023-01-30T07:30:02.306Z,96810.53
2023-01-30T07:32:05.305Z,96819.88
2023-01-30T07:34:06.712Z,96825.50
2023-01-30T07:36:08.631Z,96802.03
2023-01-30T07:38:10.187Z,96789.03
2023-01-30T07:40:12.733Z,96797.25
2023-01-30T07:42:40.173Z,96790.41
2023-01-30T07:44:42.059Z,96787.25
2023-01-30T07:46:43.757Z,96788.97
2023-01-30T07:48:46.566Z,96792.22
2023-01-30T07:50:48.161Z,96804.56
2023-01-30T07:52:49.700Z,96794.19
2023-01-30T07:54:51.605Z,96797.03
2023-01-30T07:57:19.839Z,96801.38
2023-01-30T07:59:21.750Z,96803.63
2023-01-30T08:01:23.644Z,96799.25
2023-01-30T08:03:25.380Z,96780.66
2023-01-30T08:05:27.058Z,96779.97
2023-01-30T08:07:28.669Z,96771.16
2023-01-30T08:09:30.223Z,96768.59
2023-01-30T08:11:31.767Z,96772.19
2023-01-30T08:13:47.146Z,96774.09
2023-01-30T08:15:48.851Z,96761.88
2023-01-30T08:17:55.448Z,96750.69
2023-01-30T08:19:57.021Z,96767.91
2023-01-30T08:21:59.288Z,96768.59
2023-01-30T08:24:01.426Z,96775.34
2023-01-30T08:26:06.190Z,96759.00
2023-01-30T08:28:07.856Z,96764.72
2023-01-30T08:30:11.214Z,96761.38
2023-01-30T08:32:14.721Z,96756.75
2023-01-30T08:34:16.974Z,96762.00
2023-01-30T08:36:18.517Z,96761.63
2023-01-30T08:38:20.032Z,96756.59
2023-01-30T08:40:21.662Z,96756.75
2023-01-30T08:42:23.239Z,96751.00
2023-01-30T08:44:24.873Z,96769.59
2023-01-30T08:46:26.787Z,96763.09
2023-01-30T08:48:36.707Z,96753.06
2023-01-30T08:50:41.605Z,96755.81
2023-01-30T08:52:43.747Z,96767.72
2023-01-30T08:54:45.542Z,96751.94
2023-01-30T08:56:47.565Z,96727.88
2023-01-30T08:58:49.091Z,96732.06
2023-01-30T09:00:50.738Z,96721.41
2023-01-30T09:02:58.035Z,96725.47
2023-01-30T09:04:59.579Z,96730.66
2023-01-30T09:07:02.067Z,96739.06
2023-01-30T09:09:03.914Z,96736.75
2023-01-30T09:11:06.303Z,96718.19
2023-01-30T09:13:09.747Z,96726.38
2023-01-30T09:15:11.414Z,96712.75
2023-01-30T09:17:13.816Z,96719.53
2023-01-30T09:19:15.425Z,96707.28
2023-01-30T09:21:17.081Z,96723.03
2023-01-30T09:23:18.945Z,96718.84
2023-01-30T09:25:20.531Z,96698.78
2023-01-30T09:27:22.164Z,96703.25
2023-01-30T09:29:23.849Z,96720.38
2023-01-30T09:31:25.729Z,96713.69
2023-01-30T09:33:27.851Z,96712.28
2023-01-30T09:35:30.636Z,96717.25
2023-01-30T09:37:32.961Z,96699.56
2023-01-30T09:39:34.759Z,96697.94
2023-01-30T09:41:42.293Z,96696.28
2023-01-30T09:43:55.834Z,96697.13
2023-01-30T09:46:16.363Z,96685.09
2023-01-30T09:48:24.923Z,96679.78
2023-01-30T09:51:07.860Z,96683.38
2023-01-30T09:53:36.862Z,96679.06
2023-01-30T09:55:41.485Z,96676.59
2023-01-30T09:57:45.171Z,96676.25
2023-01-30T09:59:55.802Z,96664.31
2023-01-30T10:02:09.531Z,96694.34
2023-01-30T10:04:17.500Z,96694.44
2023-01-30T10:06:20.313Z,96702.88
2023-01-30T10:08:49.841Z,96686.69
2023-01-30T10:11:10.021Z,96709.44
2023-01-30T10:13:31.213Z,96700.53
2023-01-30T10:15:36.074Z,96691.69
2023-01-30T10:17:47.200Z,96691.47
2023-01-30T10:19:57.837Z,96689.22
2023-01-30T10:22:08.088Z,96676.63
2023-01-30T10:24:28.518Z,96681.31
2023-01-30T10:26:31.300Z,96693.09
2023-01-30T10:28:40.867Z,96685.84
2023-01-30T10:30:46.221Z,96694.75
2023-01-30T10:32:59.971Z,96694.91
2023-01-30T10:35:34.305Z,96700.72
2023-01-30T10:37:47.520Z,96691.81
2023-01-30T10:40:37.820Z,96689.25
2023-01-30T10:43:17.237Z,96695.41
2023-01-30T10:45:21.332Z,96683.91
2023-01-30T10:47:23.102Z,96689.34
2023-01-30T10:49:43.697Z,96681.38
2023-01-30T10:52:01.456Z,96656.34
2023-01-30T10:54:23.112Z,96679.78
2023-01-30T10:56:49.530Z,96678.25
2023-01-30T10:59:00.427Z,96683.47
2023-01-30T11:01:16.935Z,96679.47
2023-01-30T11:03:36.319Z,96695.41
2023-01-30T11:05:56.223Z,96692.88
2023-01-30T11:07:58.041Z,96692.22
2023-01-30T11:10:00.311Z,96687.75
2023-01-30T11:12:01.964Z,96695.50
2023-01-30T11:14:09.716Z,96690.00
2023-01-30T11:16:13.021Z,96702.34
2023-01-30T11:20:44.051Z,96706.47
2023-01-30T11:23:06.967Z,96707.38
2023-01-30T11:25:17.333Z,96710.34
2023-01-30T11:27:30.632Z,96701.06
2023-01-30T11:29:34.965Z,96698.97
2023-01-30T11:31:41.756Z,96711.16
2023-01-30T11:33:44.383Z,96712.25
2023-01-30T11:36:02.758Z,96717.09
2023-01-30T11:38:21.512Z,96709.56
2023-01-30T11:40:27.677Z,96721.28
2023-01-30T11:42:32.167Z,96716.03
2023-01-30T11:44:36.855Z,96710.13
2023-01-30T11:46:40.616Z,96684.53
2023-01-30T11:49:09.128Z,96684.59
2023-01-30T11:51:11.259Z,96698.16
2023-01-30T11:53:25.575Z,96710.88
2023-01-30T11:55:27.490Z,96693.94
2023-01-30T11:57:29.112Z,96697.50
2023-01-30T11:59:38.160Z,96700.53
2023-01-30T12:01:39.788Z,96694.47
2023-01-30T12:03:49.062Z,96695.19
2023-01-30T12:05:51.036Z,96695.91
2023-01-30T12:07:53.194Z,96691.28
2023-01-30T12:09:57.185Z,96692.09
2023-01-30T12:11:58.786Z,96683.81
2023-01-30T12:14:25.331Z,96696.94
2023-01-30T12:16:46.611Z,96712.13
2023-01-30T12:18:57.254Z,96710.34
2023-01-30T12:21:00.258Z,96699.69
2023-01-30T12:23:07.842Z,96712.53
2023-01-30T12:25:15.993Z,96709.88
2023-01-30T12:27:29.599Z,96703.72
2023-01-30T12:29:35.672Z,96715.91
2023-01-30T12:31:47.640Z,96692.16
2023-01-30T12:33:49.536Z,96691.28
2023-01-30T12:36:05.510Z,96678.84
2023-01-30T12:38:33.068Z,96679.19
2023-01-30T12:41:05.964Z,96698.28
2023-01-30T12:43:45.218Z,96683.34
2023-01-30T12:46:03.967Z,96673.31
2023-01-30T12:48:14.731Z,96668.56
2023-01-30T12:50:26.405Z,96672.75
2023-01-30T12:52:35.724Z,96675.34
2023-01-30T12:55:02.357Z,96676.25
2023-01-30T12:57:06.851Z,96679.75
2023-01-30T12:59:17.581Z,96679.28
2023-01-30T13:01:34.192Z,96684.09
2023-01-30T13:03:35.665Z,96708.16
2023-01-30T13:05:47.459Z,96707.72
2023-01-30T13:08:20.062Z,96702.72
2023-01-30T13:10:33.783Z,96710.19
2023-01-30T13:12:51.388Z,96719.09
2023-01-30T13:15:34.619Z,96728.34
2023-01-30T13:17:50.530Z,96722.66
2023-01-30T13:20:08.021Z,96729.13
2023-01-30T13:22:35.451Z,96715.41
2023-01-30T13:24:53.153Z,96730.09
2023-01-30T13:26:58.521Z,96725.75
2023-01-30T13:29:04.702Z,96728.13
2023-01-30T13:31:11.116Z,96715.72
2023-01-30T13:33:22.734Z,96710.38
2023-01-30T13:35:32.996Z,96723.91
2023-01-30T13:37:37.711Z,96710.59
2023-01-30T13:40:12.948Z,96711.06
2023-01-30T13:42:41.508Z,96701.34
2023-01-30T13:44:44.495Z,96709.09
2023-01-30T13:46:47.373Z,96703.84
2023-01-30T13:48:48.820Z,96702.50
2023-01-30T13:51:28.080Z,96701.34
2023-01-30T13:53:38.043Z,96699.31
2023-01-30T13:55:58.063Z,96696.63
2023-01-30T13:58:25.004Z,96703.69
2023-01-30T14:00:28.712Z,96716.09
2023-01-30T14:02:30.283Z,96715.00
2023-01-30T14:04:40.892Z,96718.06
2023-01-30T14:06:42.603Z,96722.72
2023-01-30T14:08:48.068Z,96733.66
2023-01-30T14:10:50.223Z,96722.84
2023-01-30T14:12:55.729Z,96726.59
2023-01-30T14:15:04.591Z,96732.84
2023-01-30T14:17:14.253Z,96729.03
2023-01-30T14:19:27.939Z,96730.25
2023-01-30T14:21:30.146Z,96734.09
2023-01-30T14:23:36.226Z,96724.63
2023-01-30T14:25:50.072Z,96737.66
2023-01-30T14:27:53.600Z,96739.97
2023-01-30T14:29:55.605Z,96746.72
2023-01-30T14:31:57.419Z,96742.03
2023-01-30T14:33:59.231Z,96755.69
2023-01-30T14:36:01.199Z,96745.47
2023-01-30T14:38:19.792Z,96758.19
2023-01-30T14:40:21.320Z,96762.00
2023-01-30T14:42:27.975Z,96752.28
2023-01-30T14:44:55.585Z,96753.81
2023-01-30T14:46:57.888Z,96770.09
2023-01-30T14:49:24.933Z,96769.81
2023-01-30T14:51:47.736Z,96778.16
2023-01-30T14:53:56.475Z,96782.00
2023-01-30T14:56:02.245Z,96787.09
2023-01-30T14:58:05.139Z,96788.72
2023-01-30T15:00:19.348Z,96798.44
2023-01-30T15:02:34.377Z,96801.34
2023-01-30T15:04:51.723Z,96805.91
2023-01-30T15:06:54.750Z,96809.72
2023-01-30T15:08:56.658Z,96809.84
2023-01-30T15:11:09.081Z,96815.81
2023-01-30T15:13:27.309Z,96811.28
2023-01-30T15:15:31.587Z,96824.41
2023-01-30T15:17:58.239Z,96814.41
2023-01-30T15:20:35.284Z,96816.19
2023-01-30T15:23:04.086Z,96827.16
2023-01-30T15:25:05.566Z,96835.50
2023-01-30T15:27:13.068Z,96834.16
2023-01-30T15:29:25.088Z,96842.56
2023-01-30T15:31:26.776Z,96842.78
2023-01-30T15:33:32.097Z,96852.31
2023-01-30T15:35:33.936Z,96844.88
2023-01-30T15:37:47.093Z,96851.03
2023-01-30T15:39:48.699Z,96855.91
2023-01-30T15:41:57.134Z,96871.78
2023-01-30T15:44:13.823Z,96874.09
2023-01-30T15:46:46.096Z,96871.81
2023-01-30T15:48:47.521Z,96880.06
2023-01-30T15:50:53.516Z,96877.47
2023-01-30T15:52:57.369Z,96883.63
2023-01-30T15:55:02.017Z,96883.84
2023-01-30T15:57:03.820Z,96879.06
2023-01-30T15:59:06.920Z,96877.03
2023-01-30T16:01:09.856Z,96887.94
2023-01-30T16:03:16.676Z,96894.72
2023-01-30T16:05:22.820Z,96908.28
2023-01-30T16:07:26.669Z,96901.81
2023-01-30T16:09:28.442Z,96899.09
2023-01-30T16:11:41.594Z,96906.13
2023-01-30T16:13:43.206Z,96915.78
2023-01-30T16:15:53.960Z,96921.16
2023-01-30T16:18:03.691Z,96919.94
2023-01-30T16:20:14.399Z,96920.88
2023-01-30T16:22:19.783Z,96925.31
2023-01-30T16:24:25.079Z,96937.34
2023-01-30T16:26:27.005Z,96934.16
2023-01-30T16:28:30.532Z,96933.34
2023-01-30T16:30:32.402Z,96941.03
2023-01-30T16:32:34.245Z,96946.34
2023-01-30T16:34:37.738Z,96947.63
2023-01-30T16:36:40.587Z,96953.38
2023-01-30T16:38:44.796Z,96948.19
2023-01-30T16:40:46.635Z,96942.59
2023-01-30T16:42:57.131Z,96945.94
2023-01-30T16:45:35.838Z,96957.38
2023-01-30T16:47:38.350Z,96960.50
2023-01-30T16:49:46.022Z,96953.50
2023-01-30T16:51:51.009Z,96961.63
2023-01-30T16:54:01.390Z,96964.81
2023-01-30T16:56:16.936Z,96966.84
2023-01-30T16:58:18.725Z,96979.19
2023-01-30T17:00:38.027Z,96983.59
2023-01-30T17:02:51.145Z,96971.34
2023-01-30T17:04:52.794Z,96975.97
2023-01-30T17:07:04.492Z,96959.53
2023-01-30T17:09:34.086Z,96995.53
2023-01-30T17:11:38.871Z,96992.44
2023-01-30T17:13:43.866Z,96993.84
2023-01-30T17:15:45.488Z,97004.09
2023-01-30T17:17:47.414Z,96997.81
2023-01-30T17:19:48.969Z,97004.72
2023-01-30T17:21:51.504Z,97005.84
2023-01-30T17:23:57.355Z,97004.47
2023-01-30T17:25:59.427Z,97009.38
2023-01-30T17:28:01.565Z,97011.25
2023-01-30T17:30:06.030Z,97015.13
2023-01-30T17:32:11.451Z,97026.28
2023-01-30T17:34:13.046Z,97038.19
2023-01-30T17:36:24.116Z,97038.66
2023-01-30T17:38:25.952Z,97046.56
2023-01-30T17:40:33.704Z,97053.59
2023-01-30T17:42:35.231Z,97055.13
2023-01-30T17:44:36.969Z,97054.31
2023-01-30T17:46:40.946Z,97062.97
2023-01-30T17:48:44.290Z,97050.50
2023-01-30T17:50:45.827Z,97061.69
2023-01-30T17:52:47.434Z,97058.25
2023-01-30T17:54:48.935Z,97069.50
2023-01-30T17:57:01.877Z,97071.22
2023-01-30T17:59:10.957Z,97080.03
2023-01-30T18:01:15.005Z,97080.13
2023-01-30T18:03:16.792Z,97073.22
2023-01-30T18:05:18.522Z,97077.47
2023-01-30T18:07:22.443Z,97088.16
2023-01-30T18:09:24.976Z,97078.84
2023-01-30T18:11:27.710Z,97095.03
2023-01-30T18:13:29.275Z,97097.06
2023-01-30T18:15:32.059Z,97093.94
2023-01-30T18:17:35.670Z,97100.88
2023-01-30T18:19:37.684Z,97106.06
2023-01-30T18:21:40.275Z,97112.25
2023-01-30T18:23:42.014Z,97124.72
2023-01-30T18:25:43.590Z,97137.03
2023-01-30T18:27:47.089Z,97146.59
2023-01-30T18:29:49.288Z,97138.50
2023-01-30T18:31:50.955Z,97138.81
2023-01-30T18:33:53.474Z,97146.78
2023-01-30T18:35:55.021Z,97163.25
2023-01-30T18:38:01.642Z,97163.38
2023-01-30T18:40:04.729Z,97166.44
2023-01-30T18:42:07.739Z,97167.31
2023-01-30T18:44:10.961Z,97168.00
2023-01-30T18:46:15.334Z,97161.69
2023-01-30T18:48:16.958Z,97159.59
2023-01-30T18:50:19.061Z,97163.09
2023-01-30T18:52:20.810Z,97162.84
2023-01-30T18:54:22.404Z,97164.25
2023-01-30T18:56:30.708Z,97165.09
2023-01-30T18:58:32.797Z,97162.84
2023-01-30T19:00:34.333Z,97165.78
2023-01-30T19:02:36.240Z,97164.09
2023-01-30T19:04:38.028Z,97160.00
2023-01-30T19:06:42.301Z,97169.16
2023-01-30T19:08:45.169Z,97161.88
2023-01-30T19:10:46.671Z,97159.31
2023-01-30T19:13:06.988Z,97169.63
2023-01-30T19:15:09.438Z,97173.22
2023-01-30T19:17:11.519Z,97184.03
2023-01-30T19:19:13.167Z,97175.69
2023-01-30T19:21:14.710Z,97185.44
2023-01-30T19:23:16.279Z,97184.91
2023-01-30T19:25:17.888Z,97184.28
2023-01-30T19:27:19.497Z,97187.56
2023-01-30T19:29:21.089Z,97185.25
2023-01-30T19:31:23.112Z,97188.84
2023-01-30T19:33:24.781Z,97193.34
2023-01-30T19:35:26.302Z,97185.59
2023-01-30T19:37:27.865Z,97192.44
2023-01-30T19:39:29.402Z,97197.78
2023-01-30T19:41:34.169Z,97205.56
2023-01-30T19:43:38.302Z,97208.50
2023-01-30T19:45:42.125Z,97214.19
2023-01-30T19:47:43.650Z,97207.09
2023-01-30T19:49:45.129Z,97205.28
2023-01-30T19:51:46.633Z,97215.38
2023-01-30T19:53:54.214Z,97218.28
2023-01-30T19:55:55.825Z,97217.06
2023-01-30T19:57:57.355Z,97218.53
2023-01-30T19:59:58.933Z,97242.66
2023-01-30T20:02:00.479Z,97237.31
2023-01-30T20:04:02.526Z,97229.72
2023-01-30T20:06:08.543Z,97237.38
2023-01-30T20:08:21.777Z,97246.03
2023-01-30T20:10:31.430Z,97243.72
2023-01-30T20:12:35.502Z,97244.34
2023-01-30T20:14:37.474Z,97242.88
2023-01-30T20:16:39.983Z,97245.63
2023-01-30T20:18:41.919Z,97236.03
2023-01-30T20:20:43.495Z,97235.91
2023-01-30T20:22:45.341Z,97239.50
2023-01-30T20:24:48.204Z,97250.97
2023-01-30T20:26:50.177Z,97249.41
2023-01-30T20:28:54.505Z,97246.97
2023-01-30T20:30:56.043Z,97254.25
2023-01-30T20:32:57.623Z,97253.63
2023-01-30T20:34:59.146Z,97254.84
2023-01-30T20:37:00.741Z,97253.63
2023-01-30T20:39:04.238Z,97247.72
2023-01-30T20:41:11.615Z,97247.28
2023-01-30T20:43:13.150Z,97263.53
2023-01-30T20:45:14.727Z,97258.00
2023-01-30T20:47:16.346Z,97254.06
2023-01-30T20:49:22.532Z,97255.59
2023-01-30T20:51:29.766Z,97264.03
2023-01-30T20:53:31.509Z,97276.94
2023-01-30T20:55:33.835Z,97270.72
2023-01-30T20:57:36.107Z,97281.16
2023-01-30T20:59:38.356Z,97278.50
2023-01-30T21:01:40.523Z,97284.47
2023-01-30T21:03:44.664Z,97272.44
2023-01-30T21:05:56.799Z,97280.13
2023-01-30T21:07:58.356Z,97280.22
2023-01-30T21:10:00.145Z,97284.41
2023-01-30T21:12:02.113Z,97286.94
2023-01-30T21:14:04.365Z,97285.75
2023-01-30T21:16:10.997Z,97273.78
2023-01-30T21:18:12.605Z,97283.34
2023-01-30T21:20:14.101Z,97285.81
2023-01-30T21:22:15.743Z,97287.22
2023-01-30T21:24:28.250Z,97288.91
2023-01-30T21:26:31.963Z,97296.69
2023-01-30T21:28:35.126Z,97297.53
2023-01-30T21:30:37.037Z,97308.00
2023-01-30T21:32:39.069Z,97309.28
2023-01-30T21:34:40.914Z,97320.03
2023-01-30T21:36:42.416Z,97306.78
2023-01-30T21:39:02.896Z,97316.53
2023-01-30T21:41:23.296Z,97300.59
2023-01-30T21:43:24.804Z,97303.50
2023-01-30T21:45:26.563Z,97309.00
2023-01-30T21:47:28.494Z,97310.34
2023-01-30T21:49:30.037Z,97320.00
2023-01-30T21:51:32.106Z,97310.47
2023-01-30T21:53:33.643Z,97316.44
2023-01-30T21:55:35.182Z,97329.22
2023-01-30T21:57:36.709Z,97330.19
2023-01-30T21:59:38.931Z,97338.88
2023-01-30T22:01:41.667Z,97339.69
2023-01-30T22:03:43.509Z,97340.25
2023-01-30T22:05:45.397Z,97357.41
2023-01-30T22:07:46.974Z,97344.72
2023-01-30T22:09:48.959Z,97339.38
2023-01-30T22:11:52.302Z,97347.03
2023-01-30T22:13:54.917Z,97349.69
2023-01-30T22:16:02.901Z,97344.56
2023-01-30T22:18:06.099Z,97348.25
2023-01-30T22:20:10.066Z,97345.88
2023-01-30T22:22:11.916Z,97349.88
2023-01-30T22:24:13.757Z,97351.72
2023-01-30T22:26:17.479Z,97358.13
2023-01-30T22:28:19.497Z,97366.13
2023-01-30T22:30:21.401Z,97358.56
2023-01-30T22:32:23.696Z,97371.03
2023-01-30T22:34:25.522Z,97366.28
2023-01-30T22:36:30.573Z,97363.91
2023-01-30T22:38:33.291Z,97356.81
2023-01-30T22:40:34.807Z,97359.50
2023-01-30T22:42:36.410Z,97365.78
2023-01-30T22:44:39.716Z,97360.94
2023-01-30T22:46:41.456Z,97371.41
2023-01-30T22:48:43.464Z,97367.84
2023-01-30T22:50:45.081Z,97372.84
2023-01-30T22:52:46.616Z,97366.22
2023-01-30T22:54:48.609Z,97380.97
2023-01-30T22:56:51.385Z,97385.44
2023-01-30T22:58:53.444Z,97389.31
2023-01-30T23:00:55.368Z,97384.41
2023-01-30T23:02:57.408Z,97394.66
2023-01-30T23:04:59.676Z,97394.56
2023-01-30T23:07:01.188Z,97403.81
2023-01-30T23:09:04.162Z,97400.91
2023-01-30T23:11:17.414Z,97399.59
2023-01-30T23:13:19.551Z,97395.00
2023-01-30T23:15:21.536Z,97384.56
2023-01-30T23:17:42.116Z,97391.66
2023-01-30T23:19:43.675Z,97390.97
2023-01-30T23:21:45.919Z,97397.78
2023-01-30T23:23:47.654Z,97397.63
2023-01-30T23:25:49.206Z,97387.91
2023-01-30T23:27:50.718Z,97391.94
2023-01-30T23:29:52.267Z,97395.38
2023-01-30T23:31:53.965Z,97393.63
2023-01-30T23:34:07.015Z,97390.38
2023-01-30T23:36:11.456Z,97387.91
2023-01-30T23:38:16.109Z,97384.19
2023-01-30T23:40:17.755Z,97386.34
2023-01-30T23:42:19.366Z,97384.78
2023-01-30T23:44:20.891Z,97391.03
2023-01-30T23:46:25.882Z,97391.94
2023-01-30T23:48:27.469Z,97396.41
2023-01-30T23:50:29.155Z,97385.13
2023-01-30T23:52:31.697Z,97392.78
2023-01-30T23:54:33.516Z,97397.78
2023-01-30T23:56:39.849Z,97390.81
2023-01-30T23:58:42.384Z,97406.06
